Time;durP1;ratioP1;P1;durP2;ratioP2;P2;SDS_P1;SDS_P2;PMS_P1;PMS_P2;Temp;Humidity;BMP_temperature;BMP_pressure;BME280_temperature;BME280_humidity;BME280_pressure;Samples;Min_cycle;Max_cycle;Signal;HPM_P1;HPM_P2
2023/05/15 00:07:43;;;;;;;;;;;;;;;16.70;71.62;101462.91;20790086;28;19934;-56
2023/05/15 00:18:05;;;;;;;;;;;;;;;16.53;71.97;101447.16;20794674;28;20277;-56
2023/05/15 00:28:26;;;;;;;;;;;;;;;16.49;71.35;101442.97;20785850;28;19971;-55
2023/05/15 00:38:47;;;;;;;;;;;;;;;16.07;71.92;101450.03;20790697;28;20331;-56
2023/05/15 00:49:12;;;;;;;;;;;;;;;15.86;72.20;101438.72;20792934;28;19925;-56
2023/05/15 00:59:33;;;;;;;;;;;;;;;15.72;72.83;101437.59;20799953;28;20306;-54
2023/05/15 01:09:56;;;;;;;;;;;;;;;15.63;73.39;101417.09;20786636;28;19932;-54
2023/05/15 01:20:17;;;;;;;;;;;;;;;15.56;73.39;101413.06;20786754;28;19979;-55
2023/05/15 01:30:41;;;;;;;;;;;;;;;15.45;73.31;101412.66;20805683;28;19929;-54
2023/05/15 01:41:35;;;;;;;;;;;;;;;15.40;74.49;101422.41;20822431;23;19929;-57
2023/05/15 01:52:07;;;;;;;;;;;;;;;15.25;75.14;101416.03;20793683;28;19991;-57
2023/05/15 02:02:29;;;;;;;;;;;;;;;15.17;74.37;101410.25;20786539;28;20428;-57
2023/05/15 02:12:51;;;;;;;;;;;;;;;15.14;74.49;101399.97;20794366;28;19933;-57
2023/05/15 02:23:13;;;;;;;;;;;;;;;15.00;74.51;101392.69;20783881;28;20446;-57
2023/05/15 02:33:41;;;;;;;;;;;;;;;14.84;75.04;101391.56;20800362;28;19929;-57
2023/05/15 02:44:02;;;;;;;;;;;;;;;14.73;75.26;101380.72;20791566;28;19929;-55
2023/05/15 02:54:24;;;;;;;;;;;;;;;14.70;75.45;101401.69;20784729;28;19964;-56
2023/05/15 03:04:45;;;;;;;;;;;;;;;14.22;75.94;101405.19;20782670;28;19925;-55
2023/05/15 03:15:08;;;;;;;;;;;;;;;14.03;77.99;101391.97;20783296;28;19929;-57
2023/05/15 03:25:30;;;;;;;;;;;;;;;13.88;79.33;101388.16;20783093;28;19949;-57
2023/05/15 03:35:51;;;;;;;;;;;;;;;13.75;83.10;101388.63;20783085;28;19926;-58
2023/05/15 03:46:14;;;;;;;;;;;;;;;13.76;78.66;101391.19;20784297;28;19938;-57
2023/05/15 03:56:36;;;;;;;;;;;;;;;13.70;78.89;101393.97;20778783;28;20307;-56
2023/05/15 04:06:57;;;;;;;;;;;;;;;13.58;79.74;101391.81;20773763;28;19953;-57
2023/05/15 04:17:18;;;;;;;;;;;;;;;13.59;80.83;101390.03;20778298;28;20023;-57
2023/05/15 04:27:40;;;;;;;;;;;;;;;13.71;79.65;101389.63;20772585;28;19929;-57
2023/05/15 04:38:02;;;;;;;;;;;;;;;13.72;79.96;101392.19;20801858;28;20380;-57
2023/05/15 04:48:23;;;;;;;;;;;;;;;13.70;81.15;101395.72;20795652;28;19991;-57
2023/05/15 04:58:45;;;;;;;;;;;;;;;13.64;79.45;101393.34;20807897;28;19932;-56
2023/05/15 05:09:06;;;;;;;;;;;;;;;13.39;82.28;101400.25;20805445;28;20458;-57
2023/05/15 05:19:27;;;;;;;;;;;;;;;13.55;82.31;101404.88;20792720;28;19925;-57
2023/05/15 05:29:49;;;;;;;;;;;;;;;13.59;79.21;101390.03;20795473;28;19964;-55
2023/05/15 05:40:10;;;;;;;;;;;;;;;13.60;79.30;101396.94;20803350;28;20019;-57
2023/05/15 05:50:32;;;;;;;;;;;;;;;13.77;79.24;101402.44;20797069;28;20347;-55
2023/05/15 06:00:53;;;;;;;;;;;;;;;13.91;77.14;101392.41;20787244;28;19980;-57
2023/05/15 06:11:15;;;;;;;;;;;;;;;13.96;76.88;101398.28;20789615;28;20020;-57
2023/05/15 06:21:36;;;;;;;;;;;;;;;14.17;76.93;101405.38;20787845;28;19925;-56
2023/05/15 06:31:57;;;;;;;;;;;;;;;14.30;75.11;101406.66;20794062;28;19979;-57
2023/05/15 06:42:19;;;;;;;;;;;;;;;14.48;74.43;101397.31;20784698;28;19925;-57
2023/05/15 06:52:40;;;;;;;;;;;;;;;14.80;73.98;101396.94;20779283;28;20300;-56
2023/05/15 07:03:02;;;;;;;;;;;;;;;15.10;73.00;101407.06;20781929;28;19987;-56
2023/05/15 07:13:23;;;;;;;;;;;;;;;15.30;73.01;101392.38;20787236;28;20383;-56
2023/05/15 07:23:45;;;;;;;;;;;;;;;15.55;76.99;101388.72;20778025;28;19929;-57
2023/05/15 07:34:06;;;;;;;;;;;;;;;15.74;72.58;101383.59;20784445;28;20666;-56
2023/05/15 07:44:27;;;;;;;;;;;;;;;15.81;75.82;101374.56;20780411;28;19968;-57
2023/05/15 07:54:49;;;;;;;;;;;;;;;16.03;72.35;101375.34;20758396;28;20529;-57
2023/05/15 08:05:10;;;;;;;;;;;;;;;16.09;73.81;101375.94;20777254;28;19987;-56
2023/05/15 08:15:31;;;;;;;;;;;;;;;16.23;72.27;101372.72;20786069;28;19940;-57
2023/05/15 08:25:53;;;;;;;;;;;;;;;16.40;70.56;101380.66;20783619;28;19964;-56
2023/05/15 08:36:17;;;;;;;;;;;;;;;16.51;73.84;101367.13;20781359;28;19983;-56
2023/05/15 08:46:38;;;;;;;;;;;;;;;16.55;71.82;101358.22;20786968;28;19932;-56
2023/05/15 08:57:01;;;;;;;;;;;;;;;16.75;70.71;101352.94;20778096;28;19964;-57
2023/05/15 09:07:22;;;;;;;;;;;;;;;16.91;70.79;101351.28;20762763;28;19925;-57
2023/05/15 09:17:44;;;;;;;;;;;;;;;17.08;70.11;101343.47;20806579;28;19952;-57
2023/05/15 09:28:09;;;;;;;;;;;;;;;17.19;70.12;101340.34;20789900;28;19926;-57
2023/05/15 09:38:33;;;;;;;;;;;;;;;17.32;70.84;101349.28;20791143;28;20406;-57
2023/05/15 09:48:54;;;;;;;;;;;;;;;17.45;69.70;101348.56;20802105;28;19933;-57
2023/05/15 09:59:17;;;;;;;;;;;;;;;17.59;70.00;101329.59;20787178;28;19975;-58
2023/05/15 10:09:38;;;;;;;;;;;;;;;17.85;69.16;101329.97;20789400;28;19983;-56
2023/05/15 10:20:00;;;;;;;;;;;;;;;18.04;68.27;101332.44;20785772;28;20419;-57
2023/05/15 10:30:22;;;;;;;;;;;;;;;18.42;67.64;101328.66;20776148;28;19945;-57
2023/05/15 10:40:45;;;;;;;;;;;;;;;18.69;67.47;101337.66;20781185;28;19932;-58
2023/05/15 10:51:16;;;;;;;;;;;;;;;18.52;67.84;101329.84;20772211;28;19933;-57
2023/05/15 11:01:38;;;;;;;;;;;;;;;18.85;67.15;101320.13;20773515;28;19975;-57
2023/05/15 11:12:01;;;;;;;;;;;;;;;18.97;66.71;101314.16;20791781;28;19952;-57
2023/05/15 11:22:34;;;;;;;;;;;;;;;18.85;66.11;101317.50;20765012;28;20361;-58
2023/05/15 11:32:58;;;;;;;;;;;;;;;19.31;65.21;101299.09;20781108;28;20640;-57
2023/05/15 11:43:30;;;;;;;;;;;;;;;19.74;64.38;101282.53;20778847;28;19936;-57
2023/05/15 11:53:52;;;;;;;;;;;;;;;20.06;63.11;101273.50;20783220;28;19947;-58
2023/05/15 12:04:15;;;;;;;;;;;;;;;20.06;62.93;101281.41;20763537;28;19925;-58
2023/05/15 12:14:38;;;;;;;;;;;;;;;20.02;62.90;101272.00;20792639;28;19944;-58
2023/05/15 12:24:59;;;;;;;;;;;;;;;19.94;63.59;101266.41;20792050;28;20011;-57
2023/05/15 12:35:21;;;;;;;;;;;;;;;19.85;62.95;101264.34;20761142;28;19929;-57
2023/05/15 12:45:43;;;;;;;;;;;;;;;19.79;63.45;101259.44;20779836;28;20368;-57
2023/05/15 12:56:06;;;;;;;;;;;;;;;19.96;61.54;101251.38;20794298;28;19929;-57
2023/05/15 13:06:28;;;;;;;;;;;;;;;19.95;61.18;101262.81;20787714;28;19941;-57
2023/05/15 13:17:06;;;;;;;;;;;;;;;20.04;61.24;101249.09;20786980;28;19933;-57
2023/05/15 13:27:28;;;;;;;;;;;;;;;20.16;58.75;101243.09;20800421;28;19926;-57
2023/05/15 13:37:50;;;;;;;;;;;;;;;19.98;58.12;101257.38;20774444;28;19999;-58
2023/05/15 13:48:11;;;;;;;;;;;;;;;19.94;59.44;101248.00;20793479;28;20348;-57
2023/05/15 13:58:32;;;;;;;;;;;;;;;19.75;58.91;101250.06;20771657;28;19932;-58
2023/05/15 14:08:54;;;;;;;;;;;;;;;19.68;59.27;101243.50;20786266;28;19929;-57
2023/05/15 14:19:15;;;;;;;;;;;;;;;19.73;59.50;101239.66;20788059;28;20052;-55
2023/05/15 14:29:38;;;;;;;;;;;;;;;19.75;59.23;101255.31;20786103;28;19925;-55
2023/05/15 14:39:59;;;;;;;;;;;;;;;19.90;59.75;101252.63;20790991;28;19930;-57
2023/05/15 14:50:21;;;;;;;;;;;;;;;19.74;58.69;101266.78;20797267;28;20311;-57
2023/05/15 15:00:42;;;;;;;;;;;;;;;19.59;59.22;101262.44;20784132;28;19929;-56
2023/05/15 15:11:05;;;;;;;;;;;;;;;19.56;60.76;101262.59;20777308;28;19983;-56
2023/05/15 15:21:27;;;;;;;;;;;;;;;19.61;59.65;101266.66;20774688;28;20556;-56
2023/05/15 15:31:48;;;;;;;;;;;;;;;19.57;58.54;101274.81;20774396;28;19929;-57
2023/05/15 15:42:10;;;;;;;;;;;;;;;19.61;59.45;101271.09;20760772;28;19936;-56
2023/05/15 15:52:31;;;;;;;;;;;;;;;19.47;59.86;101278.91;20776667;28;19980;-55
2023/05/15 16:02:52;;;;;;;;;;;;;;;19.49;60.23;101292.81;20784837;28;19925;-55
2023/05/15 16:13:14;;;;;;;;;;;;;;;19.32;60.53;101308.72;20777777;28;19986;-56
2023/05/15 16:23:36;;;;;;;;;;;;;;;19.35;59.67;101305.91;20793814;28;20330;-59
2023/05/15 16:33:58;;;;;;;;;;;;;;;19.20;61.51;101317.25;20789812;28;19933;-56
2023/05/15 16:44:23;;;;;;;;;;;;;;;19.08;62.96;101328.47;20783096;28;19961;-57
2023/05/15 16:54:44;;;;;;;;;;;;;;;18.64;63.89;101338.84;20789850;28;19987;-56
2023/05/15 17:05:07;;;;;;;;;;;;;;;18.05;65.50;101366.44;20796474;28;19929;-57
2023/05/15 17:15:29;;;;;;;;;;;;;;;17.62;65.73;101382.63;20794992;28;19926;-55
2023/05/15 17:25:50;;;;;;;;;;;;;;;16.81;66.96;101408.38;20799414;28;22198;-55
2023/05/15 17:36:12;;;;;;;;;;;;;;;16.33;67.32;101439.31;20785422;28;19929;-55
2023/05/15 17:46:34;;;;;;;;;;;;;;;15.79;67.08;101450.34;20802758;28;19926;-56
2023/05/15 17:56:55;;;;;;;;;;;;;;;15.41;67.96;101471.06;20788040;28;19994;-56
2023/05/15 18:07:16;;;;;;;;;;;;;;;15.07;68.87;101485.38;20786668;28;19976;-57
2023/05/15 18:17:38;;;;;;;;;;;;;;;14.74;68.99;101481.41;20779256;28;19936;-56
2023/05/15 18:27:59;;;;;;;;;;;;;;;14.51;69.42;101493.56;20791317;28;19926;-56
2023/05/15 18:38:21;;;;;;;;;;;;;;;14.33;68.91;101504.63;20781165;28;19929;-56
2023/05/15 18:48:42;;;;;;;;;;;;;;;14.29;69.10;101529.06;20770315;28;19932;-57
2023/05/15 18:59:04;;;;;;;;;;;;;;;14.10;69.82;101534.00;20783329;28;19925;-56
2023/05/15 19:09:25;;;;;;;;;;;;;;;13.94;69.82;101540.59;20780116;28;19932;-57
2023/05/15 19:19:47;;;;;;;;;;;;;;;13.64;70.08;101545.03;20794064;28;19929;-56
2023/05/15 19:30:08;;;;;;;;;;;;;;;13.62;70.21;101553.78;20770814;28;20388;-57
2023/05/15 19:40:30;;;;;;;;;;;;;;;13.82;69.93;101574.84;20780058;28;19925;-57
2023/05/15 19:50:51;;;;;;;;;;;;;;;13.71;70.51;101576.91;20782056;28;20142;-57
2023/05/15 20:01:13;;;;;;;;;;;;;;;13.57;70.26;101584.31;20772059;28;20788;-56
2023/05/15 20:11:34;;;;;;;;;;;;;;;13.56;71.12;101577.38;20773930;28;19929;-57
2023/05/15 20:21:56;;;;;;;;;;;;;;;13.56;71.52;101587.78;20784730;28;19929;-55
2023/05/15 20:32:17;;;;;;;;;;;;;;;13.46;71.53;101594.16;20779519;28;19929;-57
2023/05/15 20:42:39;;;;;;;;;;;;;;;13.39;71.35;101590.03;20761759;28;19932;-57
2023/05/15 20:53:00;;;;;;;;;;;;;;;13.33;71.95;101595.41;20776844;28;20254;-55
2023/05/15 21:03:22;;;;;;;;;;;;;;;13.35;72.26;101604.84;20772530;28;19933;-56
2023/05/15 21:13:43;;;;;;;;;;;;;;;13.31;75.63;101608.47;20802018;28;19925;-57
2023/05/15 21:24:06;;;;;;;;;;;;;;;13.29;72.59;101619.78;20778537;28;19983;-56
2023/05/15 21:34:27;;;;;;;;;;;;;;;13.26;73.19;101620.72;20784843;28;19975;-56
2023/05/15 21:44:48;;;;;;;;;;;;;;;13.34;72.14;101625.69;20789341;28;21013;-56
2023/05/15 21:55:10;;;;;;;;;;;;;;;13.28;71.67;101641.47;20786885;28;20393;-56
2023/05/15 22:05:31;;;;;;;;;;;;;;;13.17;74.65;101646.13;20787766;28;20344;-57
2023/05/15 22:15:53;;;;;;;;;;;;;;;13.05;76.71;101642.97;20763148;28;20244;-56
2023/05/15 22:26:14;;;;;;;;;;;;;;;12.85;77.42;101658.22;20781661;28;19936;-56
2023/05/15 22:36:36;;;;;;;;;;;;;;;12.66;75.73;101656.09;20783765;28;19980;-56
2023/05/15 22:46:57;;;;;;;;;;;;;;;12.61;76.34;101658.81;20776355;28;19979;-57
2023/05/15 22:57:19;;;;;;;;;;;;;;;12.58;79.01;101655.47;20787638;28;20071;-56
2023/05/15 23:07:40;;;;;;;;;;;;;;;12.39;75.49;101660.25;20775697;28;19936;-56
2023/05/15 23:18:02;;;;;;;;;;;;;;;12.49;74.86;101672.09;20798389;28;19972;-57
2023/05/15 23:28:23;;;;;;;;;;;;;;;12.46;76.12;101669.59;20781287;28;19925;-56
2023/05/15 23:38:45;;;;;;;;;;;;;;;12.39;75.79;101670.63;20794580;28;19925;-56
2023/05/15 23:49:06;;;;;;;;;;;;;;;12.29;75.50;101658.75;20785377;28;20364;-56
2023/05/15 23:59:28;;;;;;;;;;;;;;;12.26;76.33;101677.00;20792726;28;19929;-56
